FCO weather

Leonardo da Vinci–Fiumicino Airport
Rome, Lazio, Italy

Public forecast

Using degrees Celsius for public forecast. Weather courtesy of forecast.io.

METAR (pilot weather report)

Retrieved 2017/06/28 21:20 UTC (37 minutes ago):

LIRF 282120Z 18007KT 160V220 CAVOK 26/23 Q1004 NOSIG

TAF (pilot weather forecast)

Retrieved 2017/06/28 18:25 UTC (4 hours ago):

TAF LIRF 281700Z 2818/2924 17015G25KT 9999 SCT020 SCT050 TEMPO 2818/2822 SHRA BECMG 2818/2820 23012KT